createdAt,value
2023-03-08T00:01:22.741Z,15.60
2023-03-08T00:03:55.120Z,13.20
2023-03-08T00:06:23.264Z,15.60
2023-03-08T00:08:58.567Z,14.20
2023-03-08T00:11:29.337Z,15.30
2023-03-08T00:13:57.897Z,15.90
2023-03-08T00:16:25.858Z,12.00
2023-03-08T00:18:53.897Z,15.00
2023-03-08T00:21:22.125Z,12.80
2023-03-08T00:23:52.966Z,10.80
2023-03-08T00:26:21.053Z,13.10
2023-03-08T00:28:49.383Z,11.90
2023-03-08T00:31:17.639Z,10.80
2023-03-08T00:33:46.732Z,12.80
2023-03-08T00:36:17.751Z,14.90
2023-03-08T00:38:47.381Z,12.30
2023-03-08T00:41:15.490Z,10.80
2023-03-08T00:43:43.738Z,14.10
2023-03-08T00:46:12.270Z,12.70
2023-03-08T00:48:40.809Z,10.30
2023-03-08T00:51:10.266Z,10.40
2023-03-08T00:53:38.346Z,14.40
2023-03-08T00:56:06.610Z,13.90
2023-03-08T00:58:34.592Z,12.00
2023-03-08T01:01:04.567Z,11.90
2023-03-08T01:03:33.595Z,12.30
2023-03-08T01:06:07.350Z,14.70
2023-03-08T01:08:35.584Z,13.20
2023-03-08T01:11:03.558Z,17.80
2023-03-08T01:13:33.530Z,14.30
2023-03-08T01:16:02.228Z,15.10
2023-03-08T01:18:30.335Z,17.50
2023-03-08T01:20:59.389Z,11.70
2023-03-08T01:23:27.516Z,11.30
2023-03-08T01:26:03.210Z,13.60
2023-03-08T01:28:31.854Z,16.70
2023-03-08T01:31:05.737Z,13.50
2023-03-08T01:36:08.231Z,16.60
2023-03-08T01:38:36.816Z,17.90
2023-03-08T01:41:05.790Z,15.30
2023-03-08T01:43:36.426Z,14.70
2023-03-08T01:46:06.462Z,15.60
2023-03-08T01:48:43.938Z,17.70
2023-03-08T01:51:21.271Z,16.40
2023-03-08T01:53:49.213Z,22.20
2023-03-08T01:56:17.889Z,17.40
2023-03-08T01:58:46.782Z,17.10
2023-03-08T02:01:15.345Z,15.50
2023-03-08T02:03:44.237Z,18.40
2023-03-08T02:06:12.930Z,14.00
2023-03-08T02:08:42.461Z,14.60
2023-03-08T02:11:10.477Z,15.70
2023-03-08T02:13:40.028Z,14.30
2023-03-08T02:16:10.790Z,16.40
2023-03-08T02:18:56.565Z,18.60
2023-03-08T02:21:26.391Z,15.40
2023-03-08T02:23:54.712Z,14.20
2023-03-08T02:26:26.839Z,16.80
2023-03-08T02:28:54.812Z,17.10
2023-03-08T02:31:22.702Z,15.60
2023-03-08T02:33:50.973Z,16.60
2023-03-08T02:36:19.195Z,15.90
2023-03-08T02:38:48.043Z,15.70
2023-03-08T02:41:16.087Z,13.90
2023-03-08T02:43:44.808Z,17.50
2023-03-08T02:46:13.589Z,15.20
2023-03-08T02:48:41.568Z,17.40
2023-03-08T02:51:09.627Z,17.50
2023-03-08T02:53:38.516Z,20.90
2023-03-08T02:56:07.025Z,19.00
2023-03-08T02:58:37.115Z,20.40
2023-03-08T03:01:11.161Z,21.10
2023-03-08T03:03:40.576Z,17.10
2023-03-08T03:06:19.419Z,18.00
2023-03-08T03:08:49.554Z,13.80
2023-03-08T03:11:22.202Z,18.70
2023-03-08T03:16:30.650Z,17.10
2023-03-08T03:18:58.641Z,15.50
2023-03-08T03:21:27.239Z,16.90
2023-03-08T03:23:55.906Z,17.30
2023-03-08T03:26:29.079Z,18.60
2023-03-08T03:28:57.928Z,18.40
2023-03-08T03:31:27.624Z,19.00
2023-03-08T03:33:55.861Z,17.00
2023-03-08T03:36:26.190Z,16.50
2023-03-08T03:38:54.719Z,14.40
2023-03-08T03:41:23.267Z,14.40
2023-03-08T03:43:56.187Z,13.50
2023-03-08T03:46:27.193Z,17.10
2023-03-08T03:48:56.190Z,15.20
2023-03-08T03:51:24.560Z,14.80
2023-03-08T03:54:00.213Z,19.10
2023-03-08T03:56:29.290Z,16.30
2023-03-08T03:59:00.017Z,15.20
2023-03-08T04:01:29.663Z,13.80
2023-03-08T04:04:05.648Z,14.40
2023-03-08T04:06:35.447Z,18.10
2023-03-08T04:09:13.224Z,14.10
2023-03-08T04:11:42.470Z,19.20
2023-03-08T04:14:14.824Z,14.50
2023-03-08T04:16:44.383Z,17.80
2023-03-08T04:19:22.548Z,13.70
2023-03-08T04:21:53.203Z,12.10
2023-03-08T04:24:23.897Z,16.90
2023-03-08T04:26:55.041Z,16.00
2023-03-08T04:29:24.318Z,11.40
2023-03-08T04:31:55.824Z,12.70
2023-03-08T04:34:24.157Z,13.60
2023-03-08T04:36:54.343Z,14.90
2023-03-08T04:39:22.561Z,14.20
2023-03-08T04:41:50.825Z,13.10
2023-03-08T04:44:31.202Z,17.20
2023-03-08T04:47:02.064Z,14.20
2023-03-08T04:49:41.375Z,14.80
2023-03-08T04:52:09.384Z,13.50
2023-03-08T04:54:39.404Z,15.40
2023-03-08T04:57:15.975Z,17.40
2023-03-08T04:59:44.733Z,17.10
2023-03-08T05:02:13.141Z,16.00
2023-03-08T05:04:41.568Z,17.20
2023-03-08T05:07:11.634Z,14.10
2023-03-08T05:09:39.725Z,14.50
2023-03-08T05:12:08.915Z,15.00
2023-03-08T05:14:47.722Z,14.10
2023-03-08T05:17:16.071Z,16.40
2023-03-08T05:19:49.230Z,15.10
2023-03-08T05:22:19.657Z,17.60
2023-03-08T05:24:51.123Z,18.50
2023-03-08T05:27:19.488Z,16.40
2023-03-08T05:29:48.076Z,13.60
2023-03-08T05:32:22.888Z,13.40
2023-03-08T05:34:54.846Z,15.20
2023-03-08T05:37:30.108Z,21.70
2023-03-08T05:40:01.878Z,22.60
2023-03-08T05:42:33.072Z,15.00
2023-03-08T05:45:03.013Z,12.30
2023-03-08T05:47:35.216Z,14.50
2023-03-08T05:50:03.598Z,16.90
2023-03-08T05:52:34.765Z,12.40
2023-03-08T05:55:05.953Z,14.10
2023-03-08T05:57:34.721Z,15.70
2023-03-08T06:00:04.810Z,17.20
2023-03-08T06:02:44.572Z,15.00
2023-03-08T06:05:13.590Z,15.40
2023-03-08T06:07:44.490Z,14.30
2023-03-08T06:10:14.193Z,12.90
2023-03-08T06:12:42.544Z,15.30
2023-03-08T06:15:13.446Z,12.00
2023-03-08T06:17:41.790Z,15.30
2023-03-08T06:20:11.093Z,13.30
2023-03-08T06:22:40.980Z,17.20
2023-03-08T06:25:11.496Z,17.30
2023-03-08T06:29:33.038Z,14.30
2023-03-08T06:32:03.748Z,18.90
2023-03-08T06:34:32.570Z,14.80
2023-03-08T06:37:02.313Z,19.50
2023-03-08T06:39:31.969Z,18.60
2023-03-08T06:42:03.430Z,11.70
2023-03-08T06:44:32.986Z,14.80
2023-03-08T06:47:00.906Z,15.70
2023-03-08T06:49:29.089Z,16.50
2023-03-08T06:51:57.382Z,18.20
2023-03-08T06:54:25.441Z,15.70
2023-03-08T06:56:53.637Z,15.90
2023-03-08T06:59:21.650Z,17.20
2023-03-08T07:01:49.531Z,17.40
2023-03-08T07:04:18.452Z,15.30
2023-03-08T07:06:51.864Z,14.70
2023-03-08T07:09:20.048Z,13.60
2023-03-08T07:11:48.023Z,20.70
2023-03-08T07:14:16.352Z,14.20
2023-03-08T07:16:45.410Z,15.20
2023-03-08T07:19:13.425Z,15.80
2023-03-08T07:21:44.476Z,19.60
2023-03-08T07:24:12.656Z,18.00
2023-03-08T07:26:40.628Z,18.80
2023-03-08T07:29:09.005Z,17.90
2023-03-08T07:31:38.043Z,17.30
2023-03-08T07:34:06.430Z,16.80
2023-03-08T07:36:36.391Z,19.70
2023-03-08T07:39:04.560Z,16.20
2023-03-08T07:41:34.808Z,13.70
2023-03-08T07:44:03.654Z,17.80
2023-03-08T07:46:36.740Z,18.60
2023-03-08T07:49:10.659Z,17.30
2023-03-08T07:51:38.753Z,22.80
2023-03-08T07:54:07.755Z,19.00
2023-03-08T07:56:35.807Z,19.40
2023-03-08T07:59:04.463Z,19.30
2023-03-08T08:01:33.171Z,18.40
2023-03-08T08:04:01.163Z,16.70
2023-03-08T08:06:30.498Z,17.40
2023-03-08T08:08:58.641Z,15.30
2023-03-08T08:11:26.689Z,19.00
2023-03-08T08:13:56.300Z,17.80
2023-03-08T08:16:24.268Z,15.80
2023-03-08T08:18:54.711Z,15.90
2023-03-08T08:21:24.528Z,17.00
2023-03-08T08:23:57.779Z,13.60
2023-03-08T08:26:26.158Z,15.10
2023-03-08T08:28:54.225Z,16.80
2023-03-08T08:31:24.080Z,13.00
2023-03-08T08:33:52.602Z,11.20
2023-03-08T08:36:21.282Z,10.90
2023-03-08T08:38:50.016Z,10.90
2023-03-08T08:41:19.052Z,12.70
2023-03-08T08:43:47.327Z,15.70
2023-03-08T08:46:15.946Z,12.80
2023-03-08T08:48:43.839Z,13.90
2023-03-08T08:51:12.577Z,15.10
2023-03-08T08:53:40.668Z,13.70
2023-03-08T08:56:25.603Z,13.20
2023-03-08T08:58:59.606Z,13.60
2023-03-08T09:01:30.137Z,15.20
2023-03-08T09:04:17.890Z,10.60
2023-03-08T09:06:47.430Z,12.20
2023-03-08T09:09:16.645Z,10.20
2023-03-08T09:11:55.104Z,11.60
2023-03-08T09:14:25.701Z,10.70
2023-03-08T09:16:54.149Z,13.50
2023-03-08T09:19:22.227Z,10.10
2023-03-08T09:21:50.204Z,10.60
2023-03-08T09:24:18.151Z,7.20
2023-03-08T09:26:49.183Z,11.00
2023-03-08T09:29:16.996Z,9.30
2023-03-08T09:31:45.445Z,11.20
2023-03-08T09:34:16.065Z,10.40
2023-03-08T09:36:44.134Z,10.10
2023-03-08T09:39:13.827Z,8.80
2023-03-08T09:41:48.670Z,10.20
2023-03-08T09:44:44.068Z,10.80
2023-03-08T09:47:15.251Z,11.10
2023-03-08T09:49:43.311Z,10.80
2023-03-08T09:52:40.663Z,9.50
2023-03-08T09:55:30.219Z,11.70
2023-03-08T09:58:40.239Z,13.20
2023-03-08T10:01:20.334Z,11.40
2023-03-08T10:04:20.344Z,11.40
2023-03-08T10:07:12.972Z,11.90
2023-03-08T10:09:47.962Z,12.60
2023-03-08T10:12:22.106Z,9.40
2023-03-08T10:14:52.587Z,10.20
2023-03-08T10:17:26.708Z,9.60
2023-03-08T10:19:57.870Z,10.40
2023-03-08T10:22:32.512Z,12.80
2023-03-08T10:27:52.487Z,12.50
2023-03-08T10:30:22.536Z,11.70
2023-03-08T10:32:51.655Z,16.90
2023-03-08T10:35:30.951Z,13.80
2023-03-08T10:38:00.789Z,12.50
2023-03-08T10:40:29.166Z,14.30
2023-03-08T10:43:01.146Z,15.80
2023-03-08T10:45:29.722Z,15.80
2023-03-08T10:48:05.466Z,16.60
2023-03-08T10:50:37.003Z,14.80
2023-03-08T10:53:19.216Z,20.10
2023-03-08T10:55:53.039Z,15.30
2023-03-08T10:58:41.762Z,14.80
2023-03-08T11:01:31.025Z,13.70
2023-03-08T11:04:04.609Z,15.40
2023-03-08T11:06:35.391Z,15.40
2023-03-08T11:09:04.762Z,19.50
2023-03-08T11:11:41.286Z,14.70
2023-03-08T11:14:10.953Z,15.50
2023-03-08T11:17:17.910Z,15.80
2023-03-08T11:19:54.014Z,17.20
2023-03-08T11:22:48.553Z,17.60
2023-03-08T11:25:25.288Z,17.60
2023-03-08T11:28:00.578Z,16.60
2023-03-08T11:30:55.132Z,12.50
2023-03-08T11:33:30.577Z,14.40
2023-03-08T11:36:04.826Z,15.10
2023-03-08T11:38:33.593Z,14.10
2023-03-08T11:41:16.900Z,14.60
2023-03-08T11:43:53.308Z,14.80
2023-03-08T11:46:38.990Z,14.90
2023-03-08T11:49:26.541Z,12.50
2023-03-08T11:52:08.079Z,14.40
2023-03-08T11:54:38.908Z,9.00
2023-03-08T11:57:12.238Z,9.10
2023-03-08T12:00:06.847Z,8.70
2023-03-08T12:02:45.114Z,7.50
2023-03-08T12:05:17.188Z,5.90
2023-03-08T12:07:48.180Z,7.20
2023-03-08T12:10:20.711Z,6.40
2023-03-08T12:13:00.111Z,6.90
2023-03-08T12:15:40.346Z,9.10
2023-03-08T12:18:29.999Z,8.20
2023-03-08T12:21:30.037Z,8.60
2023-03-08T12:24:22.993Z,5.10
2023-03-08T12:26:59.106Z,5.10
2023-03-08T12:29:34.747Z,4.60
2023-03-08T12:32:03.092Z,5.70
2023-03-08T12:34:39.769Z,5.50
2023-03-08T12:37:25.370Z,4.30
2023-03-08T12:39:58.898Z,4.70
2023-03-08T12:42:32.469Z,3.60
2023-03-08T12:45:07.710Z,5.60
2023-03-08T12:47:37.449Z,5.70
2023-03-08T12:50:11.682Z,6.80
2023-03-08T12:52:39.608Z,5.50
2023-03-08T12:55:26.978Z,4.20
2023-03-08T12:57:56.703Z,2.30
2023-03-08T13:00:57.917Z,2.30
2023-03-08T13:03:41.567Z,1.80
2023-03-08T13:06:51.630Z,2.00
2023-03-08T13:09:36.243Z,1.90
2023-03-08T13:12:05.469Z,1.70
2023-03-08T13:15:02.295Z,1.90
2023-03-08T13:17:30.472Z,1.60
2023-03-08T13:20:24.413Z,1.70
2023-03-08T13:23:03.927Z,1.90
2023-03-08T13:25:35.387Z,4.10
2023-03-08T13:28:11.285Z,2.80
2023-03-08T13:30:47.169Z,4.30
2023-03-08T13:33:21.125Z,2.60
2023-03-08T13:36:00.567Z,2.70
2023-03-08T13:38:34.633Z,4.30
2023-03-08T13:41:02.864Z,4.00
2023-03-08T13:43:33.291Z,4.30
2023-03-08T13:46:03.344Z,4.40
2023-03-08T13:48:34.878Z,5.10
2023-03-08T13:51:03.056Z,9.50
2023-03-08T13:53:35.814Z,4.80
2023-03-08T13:56:05.232Z,5.90
2023-03-08T13:58:34.414Z,4.80
2023-03-08T14:01:14.310Z,7.50
2023-03-08T14:03:43.709Z,4.40
2023-03-08T14:06:22.255Z,3.80
2023-03-08T14:08:50.996Z,4.00
2023-03-08T14:11:23.376Z,4.70
2023-03-08T14:13:56.938Z,4.90
2023-03-08T14:16:29.112Z,4.20
2023-03-08T14:18:58.370Z,4.40
2023-03-08T14:21:30.276Z,4.10
2023-03-08T14:24:02.277Z,5.00
2023-03-08T14:26:35.011Z,5.40
2023-03-08T14:29:03.865Z,5.50
2023-03-08T14:31:32.116Z,4.60
2023-03-08T14:34:03.705Z,4.00
2023-03-08T14:36:32.115Z,3.70
2023-03-08T14:39:01.285Z,5.60
2023-03-08T14:41:32.200Z,3.20
2023-03-08T14:44:01.222Z,3.70
2023-03-08T14:46:30.301Z,8.00
2023-03-08T14:49:03.014Z,4.70
2023-03-08T14:51:41.884Z,7.00
2023-03-08T14:54:31.491Z,5.70
2023-03-08T14:57:15.906Z,5.00
2023-03-08T14:59:44.156Z,5.50
2023-03-08T15:02:13.102Z,4.20
2023-03-08T15:04:41.875Z,4.50
2023-03-08T15:07:20.657Z,3.70
2023-03-08T15:09:49.576Z,4.10
2023-03-08T15:12:18.739Z,4.90
2023-03-08T15:14:46.715Z,4.40
2023-03-08T15:17:18.030Z,6.60
2023-03-08T15:19:46.115Z,4.80
2023-03-08T15:22:13.972Z,5.10
2023-03-08T15:24:43.177Z,4.80
2023-03-08T15:27:15.612Z,5.90
2023-03-08T15:29:43.847Z,6.50
2023-03-08T15:32:11.990Z,4.70
2023-03-08T15:34:40.949Z,5.50
2023-03-08T15:37:13.730Z,8.10
2023-03-08T15:39:41.694Z,13.30
2023-03-08T15:42:09.645Z,7.70
2023-03-08T15:44:37.584Z,7.00
2023-03-08T15:47:06.472Z,8.80
2023-03-08T15:49:34.462Z,4.50
2023-03-08T15:52:02.575Z,6.80
2023-03-08T15:54:31.866Z,3.70
2023-03-08T15:57:00.279Z,3.20
2023-03-08T15:59:28.183Z,2.80
2023-03-08T16:01:56.089Z,5.10
2023-03-08T16:04:24.098Z,3.10
2023-03-08T16:06:53.329Z,2.90
2023-03-08T16:09:23.067Z,3.80
2023-03-08T16:11:52.175Z,2.80
2023-03-08T16:14:20.584Z,8.40
2023-03-08T16:16:48.672Z,3.30
2023-03-08T16:19:17.898Z,5.10
2023-03-08T16:21:45.989Z,4.80
2023-03-08T16:24:14.033Z,5.80
2023-03-08T16:26:41.977Z,4.70
2023-03-08T16:29:10.225Z,4.80
2023-03-08T16:31:38.934Z,6.90
2023-03-08T16:34:06.996Z,6.40
2023-03-08T16:36:35.052Z,6.30
2023-03-08T16:39:05.633Z,5.10
2023-03-08T16:41:34.943Z,7.30
2023-03-08T16:44:04.055Z,7.20
2023-03-08T16:46:33.496Z,8.70
2023-03-08T16:49:01.364Z,10.30
2023-03-08T16:51:31.209Z,7.60
2023-03-08T16:53:59.088Z,10.00
2023-03-08T16:56:28.320Z,8.50
2023-03-08T16:58:58.965Z,5.70
2023-03-08T17:01:26.985Z,4.20
2023-03-08T17:03:56.067Z,4.30
2023-03-08T17:06:25.849Z,5.00
2023-03-08T17:08:57.575Z,3.80
2023-03-08T17:11:27.763Z,3.00
2023-03-08T17:14:01.234Z,3.20
2023-03-08T17:16:35.638Z,3.60
2023-03-08T17:19:05.042Z,3.00
2023-03-08T17:21:38.207Z,5.70
2023-03-08T17:24:13.080Z,2.40
2023-03-08T17:26:42.925Z,2.90
2023-03-08T17:29:10.967Z,5.90
2023-03-08T17:31:41.064Z,6.30
2023-03-08T17:34:09.150Z,6.20
2023-03-08T17:36:37.136Z,11.80
2023-03-08T17:39:07.149Z,11.70
2023-03-08T17:41:38.663Z,15.60
2023-03-08T17:44:06.981Z,17.50
2023-03-08T17:46:35.036Z,15.70
2023-03-08T17:49:03.073Z,14.60
2023-03-08T17:51:31.690Z,14.10
2023-03-08T17:54:01.057Z,15.30
2023-03-08T17:56:31.144Z,10.40
2023-03-08T17:59:02.941Z,12.20
2023-03-08T18:01:31.227Z,8.90
2023-03-08T18:03:59.495Z,9.20
2023-03-08T18:06:27.401Z,5.70
2023-03-08T18:09:00.042Z,6.00
2023-03-08T18:11:28.132Z,5.60
2023-03-08T18:13:56.306Z,4.90
2023-03-08T18:16:24.339Z,5.40
2023-03-08T18:19:02.498Z,5.80
2023-03-08T18:21:31.584Z,8.50
2023-03-08T18:23:59.639Z,7.40
2023-03-08T18:26:27.746Z,8.20
2023-03-08T18:28:56.673Z,6.60
2023-03-08T18:31:26.373Z,6.90
2023-03-08T18:33:55.300Z,7.50
2023-03-08T18:36:26.974Z,7.40
2023-03-08T18:38:54.906Z,9.10
2023-03-08T18:41:25.835Z,8.20
2023-03-08T18:46:55.394Z,8.20
2023-03-08T18:49:26.452Z,9.00
2023-03-08T18:51:55.051Z,8.60
2023-03-08T18:54:23.847Z,6.10
2023-03-08T18:56:56.232Z,7.20
2023-03-08T18:59:25.027Z,8.50
2023-03-08T19:01:55.259Z,13.10
2023-03-08T19:04:23.416Z,7.90
2023-03-08T19:06:51.806Z,8.00
2023-03-08T19:09:21.825Z,7.90
2023-03-08T19:11:49.898Z,8.10
2023-03-08T19:14:17.861Z,8.50
2023-03-08T19:16:46.229Z,9.80
2023-03-08T19:19:14.845Z,10.90
2023-03-08T19:21:46.123Z,9.20
2023-03-08T19:24:15.176Z,7.70
2023-03-08T19:26:46.943Z,14.50
2023-03-08T19:29:15.354Z,8.20
2023-03-08T19:31:53.385Z,8.90
2023-03-08T19:34:23.174Z,6.60
2023-03-08T19:36:52.664Z,7.00
2023-03-08T19:39:24.934Z,7.70
2023-03-08T19:41:53.556Z,11.50
2023-03-08T19:44:21.328Z,8.30
2023-03-08T19:46:49.477Z,6.20
2023-03-08T19:49:18.970Z,8.00
2023-03-08T19:51:47.421Z,9.60
2023-03-08T19:54:15.342Z,8.30
2023-03-08T19:56:44.033Z,8.10
2023-03-08T19:59:15.823Z,8.40
2023-03-08T20:01:43.798Z,7.40
2023-03-08T20:04:12.822Z,11.10
2023-03-08T20:06:46.118Z,10.30
2023-03-08T20:09:18.252Z,9.10
2023-03-08T20:11:47.948Z,8.00
2023-03-08T20:14:16.141Z,6.70
2023-03-08T20:16:44.019Z,8.00
2023-03-08T20:19:18.617Z,9.70
2023-03-08T20:21:46.504Z,8.40
2023-03-08T20:24:14.889Z,10.30
2023-03-08T20:26:42.808Z,10.00
2023-03-08T20:29:10.624Z,11.80
2023-03-08T20:31:39.172Z,12.90
2023-03-08T20:34:08.298Z,7.80
2023-03-08T20:36:41.600Z,12.70
2023-03-08T20:39:10.013Z,11.10
2023-03-08T20:41:38.053Z,16.80
2023-03-08T20:44:05.865Z,16.80
2023-03-08T20:46:34.598Z,18.00
2023-03-08T20:49:02.481Z,23.00
2023-03-08T20:51:31.179Z,26.60
2023-03-08T20:53:59.701Z,24.60
2023-03-08T20:56:27.756Z,24.00
2023-03-08T20:58:56.671Z,25.20
2023-03-08T21:01:27.109Z,32.80
2023-03-08T21:03:55.457Z,29.90
2023-03-08T21:06:24.867Z,25.30
2023-03-08T21:08:56.285Z,31.90
2023-03-08T21:11:24.397Z,26.50
2023-03-08T21:13:52.316Z,27.10
2023-03-08T21:16:20.998Z,27.80
2023-03-08T21:18:52.397Z,26.00
2023-03-08T21:21:25.055Z,25.50
2023-03-08T21:23:54.481Z,30.30
2023-03-08T21:26:24.487Z,26.30
2023-03-08T21:28:52.971Z,31.20
2023-03-08T21:31:21.034Z,26.20
2023-03-08T21:33:49.549Z,26.90
2023-03-08T21:36:18.617Z,24.50
2023-03-08T21:38:53.433Z,32.00
2023-03-08T21:41:22.452Z,32.80
2023-03-08T21:43:50.539Z,34.00
2023-03-08T21:46:18.821Z,31.10
2023-03-08T21:48:46.762Z,32.50
2023-03-08T21:51:15.300Z,35.00
2023-03-08T21:53:44.133Z,27.20
2023-03-08T21:56:12.744Z,23.90
2023-03-08T21:58:41.598Z,27.90
2023-03-08T22:01:17.221Z,23.20
2023-03-08T22:03:45.199Z,23.60
2023-03-08T22:06:13.266Z,24.50
2023-03-08T22:08:42.051Z,28.60
2023-03-08T22:11:10.134Z,25.60
2023-03-08T22:13:38.089Z,25.00
2023-03-08T22:16:05.992Z,23.80
2023-03-08T22:18:35.596Z,22.60
2023-03-08T22:21:03.570Z,21.60
2023-03-08T22:23:35.121Z,22.30
2023-03-08T22:26:06.108Z,21.90
2023-03-08T22:28:37.819Z,23.10
2023-03-08T22:31:12.280Z,21.00
2023-03-08T22:33:41.348Z,20.00
2023-03-08T22:36:10.547Z,21.00
2023-03-08T22:38:38.804Z,18.60
2023-03-08T22:41:13.430Z,20.10
2023-03-08T22:46:10.253Z,14.50
2023-03-08T22:48:38.735Z,18.00
2023-03-08T22:51:11.306Z,15.10
2023-03-08T22:53:41.113Z,18.30
2023-03-08T22:56:15.695Z,16.70
2023-03-08T23:01:13.140Z,13.30
2023-03-08T23:03:41.253Z,17.50
2023-03-08T23:06:09.042Z,18.00
2023-03-08T23:08:37.038Z,14.70
2023-03-08T23:11:08.281Z,15.80
2023-03-08T23:13:37.146Z,14.80
2023-03-08T23:16:08.564Z,18.00
2023-03-08T23:18:36.799Z,14.70
2023-03-08T23:21:05.052Z,11.30
2023-03-08T23:23:33.667Z,9.50
2023-03-08T23:26:03.343Z,11.80
2023-03-08T23:28:35.836Z,11.10
2023-03-08T23:31:10.943Z,11.90
2023-03-08T23:33:40.099Z,10.90
2023-03-08T23:36:08.472Z,10.00
2023-03-08T23:38:38.554Z,10.70
2023-03-08T23:41:06.970Z,9.90
2023-03-08T23:43:36.677Z,10.10
2023-03-08T23:46:08.023Z,8.10
2023-03-08T23:48:37.780Z,11.10
2023-03-08T23:51:06.301Z,13.70
2023-03-08T23:53:34.783Z,11.50
2023-03-08T23:56:03.103Z,12.00
2023-03-08T23:58:30.995Z,9.20
